createdAt,value
2023-01-09T00:04:35.652Z,2.95
2023-01-09T00:09:38.325Z,2.94
2023-01-09T00:14:41.039Z,2.93
2023-01-09T00:19:43.895Z,2.92
2023-01-09T00:24:46.597Z,2.91
2023-01-09T00:29:49.756Z,2.90
2023-01-09T00:34:53.673Z,2.89
2023-01-09T00:39:56.477Z,2.88
2023-01-09T00:45:03.260Z,2.88
2023-01-09T00:50:11.385Z,2.89
2023-01-09T00:55:15.430Z,2.89
2023-01-09T01:00:19.130Z,2.89
2023-01-09T01:05:40.490Z,2.89
2023-01-09T01:10:44.921Z,2.90
2023-01-09T01:15:47.729Z,2.93
2023-01-09T01:20:50.428Z,2.94
2023-01-09T01:25:53.187Z,2.97
2023-01-09T01:30:55.989Z,2.97
2023-01-09T01:36:05.063Z,3.00
2023-01-09T01:41:07.774Z,3.05
2023-01-09T01:46:10.512Z,3.11
2023-01-09T01:51:16.558Z,3.17
2023-01-09T01:56:35.584Z,3.20
2023-01-09T02:01:42.591Z,3.20
2023-01-09T02:06:48.537Z,3.21
2023-01-09T02:11:57.266Z,3.22
2023-01-09T02:17:28.007Z,3.27
2023-01-09T02:23:05.184Z,3.31
2023-01-09T02:28:40.180Z,3.29
2023-01-09T02:33:55.047Z,3.30
2023-01-09T02:39:08.515Z,3.30
2023-01-09T02:44:22.601Z,3.30
2023-01-09T02:49:25.706Z,3.30
2023-01-09T02:54:43.405Z,3.33
2023-01-09T03:00:13.696Z,3.34
2023-01-09T03:05:23.132Z,3.31
2023-01-09T03:10:37.996Z,3.30
2023-01-09T03:15:44.520Z,3.26
2023-01-09T03:20:48.589Z,3.22
2023-01-09T03:25:51.351Z,3.17
2023-01-09T03:30:54.152Z,3.15
2023-01-09T03:35:56.832Z,3.14
2023-01-09T03:40:59.659Z,3.16
2023-01-09T03:46:03.508Z,3.18
2023-01-09T03:51:06.422Z,3.20
2023-01-09T03:56:09.188Z,3.21
2023-01-09T04:01:12.959Z,3.24
2023-01-09T04:06:15.916Z,3.25
2023-01-09T04:11:18.719Z,3.24
2023-01-09T04:16:21.591Z,3.26
2023-01-09T04:21:24.423Z,3.26
2023-01-09T04:26:27.224Z,3.25
2023-01-09T04:31:30.021Z,3.25
2023-01-09T04:36:34.878Z,3.26
2023-01-09T04:41:49.876Z,3.27
2023-01-09T04:46:54.113Z,3.26
2023-01-09T04:51:57.293Z,3.27
2023-01-09T04:57:00.128Z,3.28
2023-01-09T05:02:03.530Z,3.30
2023-01-09T05:07:06.598Z,3.33
2023-01-09T05:12:09.784Z,3.39
2023-01-09T05:17:12.443Z,3.44
2023-01-09T05:22:15.262Z,3.48
2023-01-09T05:27:18.251Z,3.51
2023-01-09T05:32:21.055Z,3.53
2023-01-09T05:37:23.845Z,3.53
2023-01-09T05:42:26.657Z,3.52
2023-01-09T05:47:29.459Z,3.52
2023-01-09T05:52:32.375Z,3.52
2023-01-09T05:57:35.169Z,3.52
2023-01-09T06:02:38.040Z,3.54
2023-01-09T06:07:42.110Z,3.54
2023-01-09T06:12:51.841Z,3.53
2023-01-09T06:17:54.651Z,3.53
2023-01-09T06:22:57.574Z,3.54
2023-01-09T06:28:00.313Z,3.52
2023-01-09T06:33:03.276Z,3.51
2023-01-09T06:38:06.315Z,3.49
2023-01-09T06:43:09.184Z,3.48
2023-01-09T06:48:12.460Z,3.49
2023-01-09T06:53:15.408Z,3.49
2023-01-09T06:58:18.614Z,3.49
2023-01-09T07:03:22.805Z,3.51
2023-01-09T07:08:25.662Z,3.54
2023-01-09T07:13:28.387Z,3.58
2023-01-09T07:18:31.663Z,3.60
2023-01-09T07:23:35.181Z,3.63
2023-01-09T07:28:37.861Z,3.65
2023-01-09T07:33:41.061Z,3.67
2023-01-09T07:38:43.746Z,3.69
2023-01-09T07:43:46.449Z,3.69
2023-01-09T07:48:49.190Z,3.69
2023-01-09T07:53:51.991Z,3.69
2023-01-09T07:58:54.820Z,3.70
2023-01-09T08:03:57.699Z,3.71
2023-01-09T08:09:00.810Z,3.75
2023-01-09T08:14:04.022Z,3.79
2023-01-09T08:19:06.809Z,3.84
2023-01-09T08:24:10.137Z,3.88
2023-01-09T08:29:13.074Z,3.94
2023-01-09T08:34:15.835Z,4.00
2023-01-09T08:39:18.617Z,4.08
2023-01-09T08:44:40.630Z,4.13
2023-01-09T08:49:43.432Z,4.18
2023-01-09T08:54:46.194Z,4.23
2023-01-09T08:59:48.945Z,4.29
2023-01-09T09:04:56.154Z,4.33
2023-01-09T09:09:58.811Z,4.36
2023-01-09T09:15:20.339Z,4.40
2023-01-09T09:20:25.303Z,4.43
2023-01-09T09:25:28.974Z,4.49
2023-01-09T09:30:31.812Z,4.53
2023-01-09T09:35:34.884Z,4.59
2023-01-09T09:41:28.942Z,4.61
2023-01-09T09:46:50.984Z,4.61
2023-01-09T09:52:18.961Z,4.63
2023-01-09T09:57:29.632Z,4.64
2023-01-09T10:02:54.242Z,4.64
2023-01-09T10:08:14.929Z,4.66
2023-01-09T10:13:38.866Z,4.66
2023-01-09T10:18:54.515Z,4.63
2023-01-09T10:24:32.982Z,4.60
2023-01-09T10:29:55.990Z,4.59
2023-01-09T10:35:08.144Z,4.59
2023-01-09T10:40:29.155Z,4.58
2023-01-09T10:45:39.936Z,4.58
2023-01-09T10:50:46.004Z,4.56
2023-01-09T10:55:54.491Z,4.52
2023-01-09T11:01:00.440Z,4.47
2023-01-09T11:06:03.850Z,4.42
2023-01-09T11:11:06.760Z,4.42
2023-01-09T11:16:24.033Z,4.42
2023-01-09T11:21:32.598Z,4.43
2023-01-09T11:26:35.638Z,4.43
2023-01-09T11:31:40.055Z,4.43
2023-01-09T11:36:43.536Z,4.45
2023-01-09T11:41:48.317Z,4.46
2023-01-09T11:46:52.495Z,4.46
2023-01-09T11:52:21.049Z,4.47
2023-01-09T11:57:26.152Z,4.46
2023-01-09T12:02:53.225Z,4.44
2023-01-09T12:08:11.170Z,4.40
2023-01-09T12:13:26.015Z,4.38
2023-01-09T12:19:04.191Z,4.32
2023-01-09T12:24:49.493Z,4.28
2023-01-09T12:30:01.409Z,4.28
2023-01-09T12:35:30.205Z,4.28
2023-01-09T12:40:40.813Z,4.28
2023-01-09T12:45:59.407Z,4.28
2023-01-09T12:51:21.013Z,4.29
2023-01-09T12:56:29.651Z,4.29
2023-01-09T13:01:44.221Z,4.30
2023-01-09T13:06:59.713Z,4.33
2023-01-09T13:12:12.563Z,4.34
2023-01-09T13:17:33.232Z,4.32
2023-01-09T13:22:36.402Z,4.30
2023-01-09T13:27:41.456Z,4.27
2023-01-09T13:32:44.258Z,4.22
2023-01-09T13:37:52.675Z,4.14
2023-01-09T13:43:03.402Z,4.07
2023-01-09T13:48:09.864Z,4.02
2023-01-09T13:53:18.634Z,4.00
2023-01-09T13:58:22.929Z,3.97
2023-01-09T14:03:33.514Z,3.97
2023-01-09T14:08:36.679Z,4.07
2023-01-09T14:13:44.466Z,4.03
2023-01-09T14:18:53.661Z,3.97
2023-01-09T14:24:07.095Z,3.94
2023-01-09T14:29:28.380Z,3.91
2023-01-09T14:34:37.431Z,3.90
2023-01-09T14:39:45.336Z,3.88
2023-01-09T14:45:06.543Z,3.87
2023-01-09T14:50:45.459Z,3.87
2023-01-09T14:55:57.831Z,3.87
2023-01-09T15:01:03.391Z,3.88
2023-01-09T15:06:10.654Z,3.89
2023-01-09T15:11:14.187Z,3.91
2023-01-09T15:16:20.679Z,3.91
2023-01-09T15:21:31.047Z,3.90
2023-01-09T15:26:33.891Z,3.89
2023-01-09T15:31:39.027Z,3.87
2023-01-09T15:36:41.954Z,3.86
2023-01-09T15:42:05.987Z,3.86
2023-01-09T15:47:15.663Z,3.85
2023-01-09T15:52:19.405Z,3.85
2023-01-09T15:57:24.966Z,3.85
2023-01-09T16:02:46.275Z,3.85
2023-01-09T16:07:51.753Z,3.85
2023-01-09T16:12:54.952Z,3.86
2023-01-09T16:18:14.042Z,3.85
2023-01-09T16:23:30.872Z,3.84
2023-01-09T16:28:33.752Z,3.85
2023-01-09T16:33:45.799Z,3.84
2023-01-09T16:38:48.838Z,3.85
2023-01-09T16:43:52.244Z,3.86
2023-01-09T16:48:55.239Z,3.86
2023-01-09T16:53:57.956Z,3.87
2023-01-09T16:59:00.603Z,3.88
2023-01-09T17:04:10.898Z,3.91
2023-01-09T17:09:16.376Z,3.91
2023-01-09T17:14:19.141Z,3.93
2023-01-09T17:19:25.626Z,3.96
2023-01-09T17:24:46.965Z,4.01
2023-01-09T17:29:49.708Z,4.03
2023-01-09T17:34:52.409Z,4.06
2023-01-09T17:40:01.130Z,4.08
2023-01-09T17:45:04.707Z,4.09
2023-01-09T17:50:17.650Z,4.12
2023-01-09T17:55:20.379Z,4.16
2023-01-09T18:00:27.749Z,4.21
2023-01-09T18:05:30.923Z,4.24
2023-01-09T18:10:33.702Z,4.24
2023-01-09T18:15:37.147Z,4.22
2023-01-09T18:20:40.786Z,4.21
2023-01-09T18:25:44.205Z,4.18
2023-01-09T18:30:50.379Z,4.18
2023-01-09T18:35:53.124Z,4.22
2023-01-09T18:41:00.043Z,4.27
2023-01-09T18:46:09.641Z,4.29
2023-01-09T18:51:12.404Z,4.33
2023-01-09T18:56:15.722Z,4.36
2023-01-09T19:01:19.672Z,4.39
2023-01-09T19:06:23.050Z,4.39
2023-01-09T19:11:26.072Z,4.43
2023-01-09T19:16:28.980Z,4.48
2023-01-09T19:21:32.430Z,4.50
2023-01-09T19:26:35.198Z,4.50
2023-01-09T19:31:38.098Z,4.47
2023-01-09T19:36:40.911Z,4.46
2023-01-09T19:41:44.416Z,4.46
2023-01-09T19:46:47.215Z,4.47
2023-01-09T19:51:51.759Z,4.47
2023-01-09T19:56:54.564Z,4.49
2023-01-09T20:01:58.254Z,4.51
2023-01-09T20:07:01.248Z,4.54
2023-01-09T20:12:05.446Z,4.60
2023-01-09T20:17:08.160Z,4.66
2023-01-09T20:22:11.653Z,4.74
2023-01-09T20:27:14.444Z,4.84
2023-01-09T20:32:17.192Z,4.96
2023-01-09T20:37:19.948Z,5.07
2023-01-09T20:42:22.635Z,5.15
2023-01-09T20:47:26.361Z,5.20
2023-01-09T20:52:29.092Z,5.23
2023-01-09T20:57:32.179Z,5.23
2023-01-09T21:02:34.972Z,5.22
2023-01-09T21:07:37.795Z,5.20
2023-01-09T21:12:40.601Z,5.18
2023-01-09T21:17:43.928Z,5.18
2023-01-09T21:22:46.683Z,5.18
2023-01-09T21:27:51.151Z,5.16
2023-01-09T21:32:53.938Z,5.17
2023-01-09T21:37:58.098Z,5.18
2023-01-09T21:43:19.512Z,5.19
2023-01-09T21:48:24.553Z,5.20
2023-01-09T21:53:27.260Z,5.22
2023-01-09T21:58:29.958Z,5.23
2023-01-09T22:03:32.703Z,5.25
2023-01-09T22:08:35.771Z,5.27
2023-01-09T22:13:38.574Z,5.29
2023-01-09T22:18:41.513Z,5.30
2023-01-09T22:23:44.198Z,5.30
2023-01-09T22:28:48.921Z,5.31
2023-01-09T22:33:53.368Z,5.31
2023-01-09T22:38:57.905Z,5.32
2023-01-09T22:44:00.911Z,5.33
2023-01-09T22:49:04.352Z,5.32
2023-01-09T22:54:07.124Z,5.32
2023-01-09T22:59:09.922Z,5.30
2023-01-09T23:04:13.988Z,5.28
2023-01-09T23:09:16.866Z,5.26
2023-01-09T23:14:21.616Z,5.23
2023-01-09T23:19:24.364Z,5.20
2023-01-09T23:24:28.343Z,5.18
2023-01-09T23:29:31.137Z,5.15
2023-01-09T23:34:33.939Z,5.14
2023-01-09T23:39:36.850Z,5.11
2023-01-09T23:44:39.646Z,5.10
2023-01-09T23:49:42.467Z,5.08
2023-01-09T23:54:45.478Z,5.08
2023-01-09T23:59:48.362Z,5.09
